Time;durP1;ratioP1;P1;durP2;ratioP2;P2;SDS_P1;SDS_P2;PMS_P1;PMS_P2;Temp;Humidity;BMP_temperature;BMP_pressure;BME280_temperature;BME280_humidity;BME280_pressure;Samples;Min_cycle;Max_cycle;Signal;HPM_P1;HPM_P2
2022/05/10 00:01:36;;;;;;;7.30;4.25;;;;;;;16.02;66.33;100489.13;7711381;32;37094;-78
2022/05/10 00:05:52;;;;;;;10.02;4.37;;;;;;;15.81;66.86;100490.47;7733100;32;39508;-77
2022/05/10 00:10:10;;;;;;;9.88;4.55;;;;;;;15.89;66.25;100476.91;7735994;32;40803;-78
2022/05/10 00:14:27;;;;;;;7.12;4.37;;;;;;;16.04;65.66;100478.69;7713382;32;38534;-77
2022/05/10 00:18:44;;;;;;;6.97;4.65;;;;;;;15.90;65.70;100469.47;7711990;32;37091;-78
2022/05/10 00:23:00;;;;;;;11.82;4.62;;;;;;;15.80;65.99;100472.31;7726334;32;39382;-77
2022/05/10 00:27:17;;;;;;;8.45;4.43;;;;;;;15.92;65.21;100475.50;7739615;32;40026;-77
2022/05/10 00:31:34;;;;;;;6.20;3.75;;;;;;;16.20;63.92;100471.06;7732932;32;38645;-78
2022/05/10 00:35:50;;;;;;;6.45;4.07;;;;;;;15.95;64.33;100470.25;7711548;32;36903;-77
2022/05/10 00:40:07;;;;;;;6.90;4.55;;;;;;;15.64;65.26;100460.63;7712762;32;39036;-77
2022/05/10 00:44:34;;;;;;;8.55;4.28;;;;;;;15.73;64.92;100462.47;7736804;32;41221;-78
2022/05/10 00:49:24;;;;;;;6.87;3.90;;;;;;;15.76;64.88;100459.16;7738295;32;37561;-78
2022/05/10 00:54:06;;;;;;;6.93;4.20;;;;;;;15.91;64.12;100462.84;7718344;32;37023;-77
2022/05/10 00:58:44;;;;;;;5.75;3.70;;;;;;;16.21;62.65;100453.47;7712650;32;39262;-78
2022/05/10 01:03:12;;;;;;;7.37;3.83;;;;;;;16.09;62.99;100448.38;7726230;32;40039;-79
2022/05/10 01:07:49;;;;;;;7.07;4.22;;;;;;;15.60;64.71;100446.63;7736018;32;37852;-76
2022/05/10 01:12:24;;;;;;;6.57;3.97;;;;;;;15.55;64.72;100442.00;7728658;32;37757;-78
2022/05/10 01:16:40;;;;;;;6.37;4.12;;;;;;;15.62;64.87;100444.41;7711292;32;39086;-78
2022/05/10 01:21:04;;;;;;;8.05;4.15;;;;;;;15.57;64.96;100449.97;7713600;32;40013;-77
2022/05/10 01:25:27;;;;;;;;;;;;;;;15.61;64.92;100448.28;7739266;32;38538;-77
2022/05/10 01:30:17;;;;;;;6.50;4.05;;;;;;;15.68;64.58;100442.47;7737817;32;37596;-77
2022/05/10 01:34:33;;;;;;;5.53;3.50;;;;;;;15.94;63.13;100441.09;7734264;32;39303;-77
2022/05/10 01:38:55;;;;;;;5.60;3.83;;;;;;;15.45;64.36;100438.53;7738717;32;40720;-79
2022/05/10 01:43:16;;;;;;;5.80;4.28;;;;;;;15.38;64.74;100436.97;7721848;32;38679;-79
2022/05/10 01:47:39;;;;;;;7.40;4.18;;;;;;;15.76;62.68;100430.84;7710839;32;36803;-77
2022/05/10 01:52:08;;;;;;;9.13;3.85;;;;;;;15.72;62.68;100432.50;7717748;32;39954;-77
2022/05/10 01:56:28;;;;;;;5.97;4.07;;;;;;;15.58;63.46;100424.94;7738437;32;40000;-79
2022/05/10 02:00:52;;;;;;;6.82;3.80;;;;;;;15.35;64.01;100429.28;7737397;32;37704;-78
2022/05/10 02:05:13;;;;;;;6.87;3.92;;;;;;;15.24;64.24;100424.97;7725321;32;35725;-77
2022/05/10 02:09:39;;;;;;;10.68;4.35;;;;;;;15.48;63.91;100422.28;7736774;32;39489;-79
2022/05/10 02:14:04;;;;;;;7.62;4.25;;;;;;;15.50;63.67;100411.00;7718595;32;39941;-78
2022/05/10 02:18:51;;;;;;;6.55;4.20;;;;;;;15.59;63.09;100417.50;7711608;32;37927;-77
2022/05/10 02:23:30;;;;;;;8.15;3.70;;;;;;;15.65;63.56;100421.84;7721893;32;37010;-77
2022/05/10 02:28:01;;;;;;;9.23;4.15;;;;;;;15.82;62.31;100412.38;7711577;32;40143;-77
2022/05/10 02:37:13;;;;;;;8.10;3.80;;;;;;;15.92;61.90;100415.81;7738180;32;37660;-77
2022/05/10 02:41:29;;;;;;;5.65;3.62;;;;;;;15.38;63.07;100412.22;7733740;32;38441;-78
2022/05/10 02:45:46;;;;;;;6.80;4.25;;;;;;;15.62;61.80;100410.63;7709857;32;40060;-77
2022/05/10 02:50:03;;;;;;;8.88;3.70;;;;;;;15.52;61.88;100417.03;7711134;32;40558;-78
2022/05/10 02:54:20;;;;;;;7.20;4.15;;;;;;;15.58;61.02;100405.69;7729930;32;39037;-77
2022/05/10 02:59:05;;;;;;;16.60;4.00;;;;;;;15.50;61.06;100413.75;7737894;32;36772;-77
2022/05/10 03:03:24;;;;;;;6.93;4.40;;;;;;;15.29;61.59;100413.94;7722198;32;39297;-78
2022/05/10 03:07:41;;;;;;;8.95;4.20;;;;;;;15.39;61.22;100413.03;7709585;32;40044;-77
2022/05/10 03:11:57;;;;;;;6.75;4.10;;;;;;;15.33;61.26;100398.53;7716405;32;38432;-78
2022/05/10 03:16:14;;;;;;;5.72;3.65;;;;;;;15.39;60.94;100402.87;7737477;32;36989;-78
2022/05/10 03:20:30;;;;;;;8.15;3.92;;;;;;;15.42;60.80;100400.63;7737605;32;38976;-78
2022/05/10 03:24:46;;;;;;;6.18;3.87;;;;;;;15.32;61.11;100399.63;7713324;32;39614;-77
2022/05/10 03:29:02;;;;;;;10.00;4.03;;;;;;;15.27;61.28;100399.69;7710328;32;37606;-78
2022/05/10 03:33:18;;;;;;;5.30;3.70;;;;;;;15.31;61.25;100406.22;7723948;32;38251;-79
2022/05/10 03:37:34;;;;;;;7.05;4.00;;;;;;;15.34;60.98;100400.16;7737158;32;40166;-77
2022/05/10 03:41:50;;;;;;;7.85;4.05;;;;;;;15.50;60.34;100405.50;7732053;32;40795;-77
2022/05/10 03:46:07;;;;;;;6.87;4.30;;;;;;;15.33;61.27;100397.69;7709938;32;38005;-78
2022/05/10 03:50:24;;;;;;;6.22;3.90;;;;;;;15.36;61.12;100397.94;7709913;32;37023;-79
2022/05/10 03:54:40;;;;;;;6.70;4.18;;;;;;;15.35;61.48;100399.06;7735440;32;39992;-79
2022/05/10 03:58:57;;;;;;;8.68;4.53;;;;;;;15.40;61.61;100390.78;7738843;32;40925;-78
2022/05/10 04:03:13;;;;;;;9.13;4.62;;;;;;;15.39;62.34;100396.56;7725241;32;38020;-77
2022/05/10 04:07:29;;;;;;;7.10;4.10;;;;;;;15.37;62.31;100398.78;7712877;32;37016;-77
2022/05/10 04:11:46;;;;;;;5.78;3.90;;;;;;;15.27;62.90;100399.69;7716378;32;40082;-78
2022/05/10 04:16:02;;;;;;;6.05;4.50;;;;;;;15.28;64.31;100406.84;7738623;32;41352;-77
2022/05/10 04:20:18;;;;;;;8.82;4.70;;;;;;;15.30;63.67;100403.81;7740099;32;38657;-77
2022/05/10 04:24:34;;;;;;;5.57;3.47;;;;;;;15.45;63.78;100411.06;7715234;32;37548;-77
2022/05/10 04:28:50;;;;;;;9.32;4.30;;;;;;;15.60;62.54;100408.16;7713145;32;38941;-79
2022/05/10 04:33:06;;;;;;;6.07;4.10;;;;;;;15.73;62.08;100417.66;7712864;32;39762;-77
2022/05/10 04:37:22;;;;;;;9.35;4.43;;;;;;;15.59;62.97;100417.50;7712742;32;38548;-76
2022/05/10 04:41:43;;;;;;;7.53;4.25;;;;;;;15.49;63.74;100423.94;7717294;32;37651;-77
2022/05/10 04:45:59;;;;;;;8.23;4.20;;;;;;;15.41;64.99;100430.06;7739437;32;40052;-77
2022/05/10 04:50:15;;;;;;;6.43;4.32;;;;;;;15.52;63.37;100428.88;7739461;32;40046;-77
2022/05/10 04:54:31;;;;;;;11.88;3.95;;;;;;;15.83;62.04;100425.81;7715803;32;38776;-77
2022/05/10 04:58:48;;;;;;;8.88;3.90;;;;;;;15.87;61.71;100437.06;7712449;32;38116;-77
2022/05/10 05:03:04;;;;;;;9.65;4.10;;;;;;;15.87;61.78;100428.81;7713098;32;38991;-77
2022/05/10 05:07:20;;;;;;;5.15;3.40;;;;;;;15.95;62.32;100431.75;7716123;32;39700;-77
2022/05/10 05:11:36;;;;;;;8.18;4.30;;;;;;;15.90;62.98;100439.22;7738982;32;37906;-78
2022/05/10 05:15:53;;;;;;;6.80;4.00;;;;;;;16.02;62.08;100436.06;7739057;32;36736;-79
2022/05/10 05:20:11;;;;;;;9.52;4.43;;;;;;;16.30;61.72;100437.94;7716847;32;39339;-79
2022/05/10 05:24:27;;;;;;;10.82;4.32;;;;;;;16.14;62.47;100428.22;7712140;32;40282;-77
2022/05/10 05:28:43;;;;;;;7.00;4.30;;;;;;;16.04;62.98;100440.19;7724383;32;37751;-77
2022/05/10 05:32:59;;;;;;;10.15;4.40;;;;;;;16.29;62.44;100436.28;7738393;32;37237;-77
2022/05/10 05:37:33;;;;;;;5.93;3.70;;;;;;;15.88;62.37;100442.25;7735608;32;39516;-78
2022/05/10 05:41:49;;;;;;;9.25;4.15;;;;;;;16.60;60.25;100435.06;7711985;32;40987;-77
2022/05/10 05:46:06;;;;;;;8.18;3.72;;;;;;;17.08;57.74;100440.44;7711877;32;38116;-78
2022/05/10 05:50:25;;;;;;;7.20;3.45;;;;;;;17.46;55.96;100432.12;7733434;32;36802;-78
2022/05/10 05:54:45;;;;;;;4.97;3.10;;;;;;;17.80;55.04;100439.22;7738788;32;39531;-77
2022/05/10 05:59:01;;;;;;;8.20;3.45;;;;;;;17.70;53.76;100434.72;7724521;32;39899;-77
2022/05/10 06:03:17;;;;;;;4.60;3.28;;;;;;;17.90;53.51;100433.56;7712453;32;38094;-77
2022/05/10 06:07:33;;;;;;;8.48;3.42;;;;;;;17.76;54.18;100435.44;7715282;32;37114;-79
2022/05/10 06:11:50;;;;;;;5.25;3.40;;;;;;;17.96;53.19;100432.31;7737255;32;39180;-77
2022/05/10 06:16:07;;;;;;;6.00;3.92;;;;;;;18.19;52.23;100430.47;7737714;32;39587;-77
2022/05/10 06:20:24;;;;;;;6.80;3.62;;;;;;;18.34;52.21;100429.34;7715775;32;38154;-74
2022/05/10 06:24:41;;;;;;;8.73;3.40;;;;;;;18.06;53.41;100433.22;7711471;32;37801;-71
2022/05/10 06:28:56;;;;;;;4.40;3.00;;;;;;;18.15;49.22;100431.41;7711423;32;39470;-81
2022/05/10 06:33:13;;;;;;;7.93;2.80;;;;;;;18.82;50.12;100428.06;7716356;32;39941;-81
2022/05/10 06:42:03;;;;;;;7.87;3.40;;;;;;;18.62;48.90;100425.72;7712456;32;37750;-80
2022/05/10 06:46:21;;;;;;;8.18;3.40;;;;;;;19.33;47.71;100420.44;7733523;32;39356;-86
2022/05/10 06:50:37;;;;;;;6.80;3.30;;;;;;;18.94;48.44;100421.97;7711823;32;40000;-84
2022/05/10 06:54:55;;;;;;;8.45;3.70;;;;;;;19.08;47.67;100414.44;7727438;32;38204;-83
2022/05/10 06:59:11;;;;;;;8.77;3.08;;;;;;;18.97;48.62;100426.84;7729038;32;37009;-85
2022/05/10 07:03:31;;;;;;;6.87;3.28;;;;;;;19.25;45.82;100421.22;7718422;32;40057;-85
2022/05/10 07:07:48;;;;;;;8.55;3.15;;;;;;;19.33;47.08;100418.53;7734460;32;39649;-76
2022/05/10 07:12:04;;;;;;;4.62;2.90;;;;;;;19.77;44.40;100416.03;7715091;32;37895;-76
2022/05/10 07:16:20;;;;;;;5.28;3.08;;;;;;;20.01;45.12;100423.13;7708170;32;37204;-76
2022/05/10 07:20:37;;;;;;;5.20;3.05;;;;;;;20.14;45.07;100419.41;7710245;32;39404;-77
2022/05/10 07:24:53;;;;;;;9.45;3.20;;;;;;;20.56;44.71;100414.31;7710037;32;39934;-77
2022/05/10 07:29:09;;;;;;;8.13;3.17;;;;;;;20.10;43.59;100418.44;7709517;32;38659;-77
2022/05/10 07:33:26;;;;;;;7.18;3.50;;;;;;;20.81;43.03;100414.66;7709924;32;37783;-77
2022/05/10 07:37:42;;;;;;;4.30;2.70;;;;;;;20.62;44.83;100407.47;7718454;32;40050;-77
2022/05/10 07:42:01;;;;;;;4.00;2.58;;;;;;;20.81;44.22;100407.16;7729758;32;40151;-77
2022/05/10 07:46:17;;;;;;;6.50;3.05;;;;;;;21.08;44.08;100404.41;7709869;32;38023;-77
2022/05/10 07:50:34;;;;;;;4.55;2.90;;;;;;;21.01;43.49;100413.22;7709806;32;38107;-77
2022/05/10 07:54:50;;;;;;;8.55;2.97;;;;;;;20.60;42.17;100398.66;7709772;32;39694;-77
2022/05/10 07:59:07;;;;;;;5.28;2.65;;;;;;;20.78;41.28;100393.16;7709503;32;40466;-77
2022/05/10 08:03:25;;;;;;;5.93;2.80;;;;;;;21.31;40.43;100388.38;7709559;32;38669;-78
2022/05/10 08:07:41;;;;;;;5.12;3.00;;;;;;;21.49;39.84;100395.53;7709211;32;37136;-78
2022/05/10 08:11:57;;;;;;;4.97;2.55;;;;;;;21.37;39.29;100385.09;7709362;32;39659;-79
2022/05/10 08:16:13;;;;;;;5.53;2.83;;;;;;;21.43;36.38;100390.47;7709152;32;40795;-78
2022/05/10 08:20:30;;;;;;;5.78;2.47;;;;;;;22.18;38.34;100387.22;7709770;32;38811;-77
2022/05/10 08:24:46;;;;;;;9.15;3.22;;;;;;;22.27;36.83;100383.28;7708938;32;37771;-78
2022/05/10 08:29:02;;;;;;;6.32;2.85;;;;;;;22.49;36.92;100382.16;7709587;32;39275;-75
2022/05/10 08:33:24;;;;;;;11.00;2.47;;;;;;;22.93;35.80;100372.66;7726392;32;40634;-75
2022/05/10 08:37:40;;;;;;;8.13;2.67;;;;;;;22.92;35.73;100380.19;7709548;32;38238;-74
2022/05/10 08:41:59;;;;;;;7.82;2.80;;;;;;;22.84;35.26;100376.31;7707377;32;168905;-77
2022/05/10 08:46:24;;;;;;;6.20;2.62;;;;;;;22.41;34.41;100382.22;7721708;32;40134;-77
2022/05/10 08:50:44;;;;;;;11.75;3.05;;;;;;;22.71;34.00;100382.16;7739370;32;39882;-77
2022/05/10 08:55:02;;;;;;;5.07;2.80;;;;;;;22.42;34.56;100376.34;7737865;32;38075;-76
2022/05/10 08:59:49;;;;;;;4.90;3.00;;;;;;;23.15;35.71;100375.09;7733729;32;37867;-78
2022/05/10 09:04:29;;;;;;;4.07;2.87;;;;;;;23.15;35.21;100375.09;7712474;32;39349;-78
2022/05/10 09:09:10;;;;;;;4.57;2.25;;;;;;;22.70;33.72;100373.03;7700792;32;40849;-78
2022/05/10 09:13:46;;;;;;;7.00;2.30;;;;;;;23.08;33.96;100374.00;7712290;32;38363;-78
2022/05/10 09:18:24;;;;;;;4.80;2.45;;;;;;;23.34;33.89;100371.78;7712133;32;38004;-79
2022/05/10 09:23:24;;;;;;;6.43;2.53;;;;;;;23.20;32.90;100369.31;7712312;32;39011;-79
2022/05/10 09:27:41;;;;;;;5.35;2.60;;;;;;;23.57;31.88;100371.34;7711168;32;40029;-79
2022/05/10 09:36:34;;;;;;;9.07;2.28;;;;;;;24.00;32.11;100367.22;7711577;32;37894;-79
2022/05/10 09:40:51;;;;;;;8.15;2.78;;;;;;;23.34;31.64;100371.78;7711614;32;38926;-79
2022/05/10 09:45:16;;;;;;;6.53;2.62;;;;;;;23.43;35.04;100360.53;7711962;32;38602;-79
2022/05/10 09:49:34;;;;;;;6.90;2.33;;;;;;;24.30;32.39;100361.38;7710993;32;37807;-79
2022/05/10 09:53:52;;;;;;;4.32;2.35;;;;;;;23.32;32.20;100356.56;7711129;32;36290;-79
2022/05/10 09:58:17;;;;;;;7.25;2.37;;;;;;;23.18;33.63;100352.16;7711815;32;39808;-79
2022/05/10 10:02:38;;;;;;;5.90;2.65;;;;;;;23.78;33.29;100351.75;7711827;32;40749;-79
2022/05/10 10:07:04;;;;;;;7.28;2.28;;;;;;;24.20;32.79;100348.75;7711559;32;38334;-80
2022/05/10 10:11:30;;;;;;;3.15;2.30;;;;;;;24.02;31.70;100342.63;7711944;32;36839;-79
2022/05/10 10:15:46;;;;;;;8.60;2.58;;;;;;;24.76;32.28;100333.31;7711745;32;39687;-79
2022/05/10 10:20:33;;;;;;;6.62;2.67;;;;;;;24.00;33.79;100334.63;7711573;32;40906;-79
2022/05/10 10:25:08;;;;;;;3.97;2.65;;;;;;;25.17;32.80;100325.66;7700260;32;37737;-79
2022/05/10 10:30:03;;;;;;;5.18;2.53;;;;;;;25.40;33.20;100318.31;7711492;32;37335;-79
2022/05/10 10:34:27;;;;;;;5.50;2.42;;;;;;;25.96;32.67;100322.13;7701811;32;39324;-80
2022/05/10 10:38:58;;;;;;;;;;;;;;;26.52;30.89;100306.94;7711715;32;40095;-79
2022/05/10 10:43:25;;;;;;;7.65;2.60;;;;;;;26.57;27.42;100307.47;7711234;32;37724;-79
2022/05/10 10:47:54;;;;;;;3.65;2.35;;;;;;;26.83;31.19;100303.22;7710149;32;37966;-79
2022/05/10 10:52:11;;;;;;;4.07;2.55;;;;;;;26.91;29.77;100299.38;7710213;32;39059;-80
2022/05/10 10:56:42;;;;;;;2.37;2.00;;;;;;;26.54;27.82;100296.22;7709811;32;40888;-79
2022/05/10 11:01:22;;;;;;;5.43;2.50;;;;;;;26.95;28.66;100296.66;7710635;32;38049;-79
2022/05/10 11:06:06;;;;;;;3.20;2.12;;;;;;;26.41;28.79;100293.56;7710953;32;37242;-79
2022/05/10 11:10:34;;;;;;;5.43;2.17;;;;;;;26.74;31.65;100281.06;7710823;32;39107;-79
2022/05/10 11:15:28;;;;;;;3.42;2.30;;;;;;;26.42;28.37;100278.41;7710998;32;40742;-80
2022/05/10 11:20:10;;;;;;;2.87;2.20;;;;;;;26.10;28.43;100276.94;7709487;32;37975;-79
2022/05/10 11:24:49;;;;;;;4.62;2.20;;;;;;;26.36;27.49;100274.28;7709748;32;36746;-80
2022/05/10 11:29:22;;;;;;;3.15;2.20;;;;;;;26.71;27.37;100267.81;7709395;32;40036;-79
2022/05/10 11:34:00;;;;;;;6.68;2.40;;;;;;;26.14;26.75;100263.84;7710485;32;39651;-80
2022/05/10 11:38:34;;;;;;;5.97;2.37;;;;;;;26.82;26.69;100256.88;7710401;32;37738;-80
2022/05/10 11:42:57;;;;;;;5.12;2.40;;;;;;;25.83;27.42;100237.59;7710588;32;36928;-80
2022/05/10 11:47:43;;;;;;;7.47;2.67;;;;;;;26.98;26.32;100239.97;7710063;32;39090;-80
2022/05/10 11:52:17;;;;;;;11.50;2.83;;;;;;;26.76;26.60;100238.75;7694763;32;39790;-79
2022/05/10 11:56:38;;;;;;;16.67;3.35;;;;;;;25.97;27.96;100223.97;7709780;32;37984;-79
2022/05/10 12:00:57;;;;;;;8.85;3.10;;;;;;;26.74;28.93;100210.34;7708585;32;37229;-79
2022/05/10 12:05:17;;;;;;;11.38;2.67;;;;;;;25.98;28.38;100208.03;7709750;32;39359;-80
2022/05/10 12:09:52;;;;;;;3.22;2.30;;;;;;;26.29;28.83;100206.28;7709403;32;40597;-80
2022/05/10 12:23:40;;;;;;;3.28;2.42;;;;;;;26.91;26.84;100193.09;7712962;32;39337;-82
2022/05/10 12:28:00;;;;;;;3.00;2.12;;;;;;;27.44;24.62;100195.19;7712695;32;40811;-82
2022/05/10 12:32:24;;;;;;;3.90;1.98;;;;;;;27.16;24.50;100187.91;7714796;32;37718;-77
2022/05/10 12:36:46;;;;;;;3.12;2.12;;;;;;;27.25;26.86;100192.41;7737411;32;37770;-78
2022/05/10 12:41:12;;;;;;;4.62;2.25;;;;;;;27.19;24.81;100174.34;7738989;32;39388;-76
2022/05/10 12:46:13;;;;;;;3.95;1.92;;;;;;;26.63;25.95;100164.59;7738910;32;40761;-78
2022/05/10 12:50:37;;;;;;;6.57;2.47;;;;;;;26.73;26.92;100153.63;7738966;32;37989;-78
2022/05/10 12:55:04;;;;;;;5.18;1.73;;;;;;;26.86;24.75;100140.25;7738289;32;37786;-78
2022/05/10 12:59:26;;;;;;;4.43;1.98;;;;;;;27.21;24.03;100142.00;7738118;32;40170;-78
2022/05/10 13:03:46;;;;;;;2.55;1.75;;;;;;;27.45;24.83;100131.59;7738380;32;40826;-78
2022/05/10 13:08:38;;;;;;;5.37;1.70;;;;;;;27.88;21.07;100123.75;7738885;32;37446;-78
2022/05/10 13:13:21;;;;;;;3.15;1.67;;;;;;;27.73;22.15;100129.19;7734191;32;37146;-79
2022/05/10 13:17:49;;;;;;;2.83;1.98;;;;;;;27.35;21.70;100111.47;7738475;32;39087;-78
2022/05/10 13:22:12;;;;;;;7.32;2.08;;;;;;;26.57;22.32;100110.97;7737804;32;40802;-78
2022/05/10 13:26:29;;;;;;;8.80;2.03;;;;;;;27.71;21.07;100100.72;7737292;32;36119;-78
2022/05/10 13:30:54;;;;;;;3.17;1.58;;;;;;;27.82;21.13;100100.88;7738940;32;37248;-79
2022/05/10 13:35:12;;;;;;;6.70;1.92;;;;;;;28.25;19.97;100089.34;7736957;32;40178;-79
2022/05/10 13:39:30;;;;;;;4.10;1.70;;;;;;;27.97;22.16;100090.66;7738436;32;39871;-79
2022/05/10 13:43:52;;;;;;;7.57;2.17;;;;;;;27.17;22.59;100088.78;7738508;32;37230;-78
2022/05/10 13:48:12;;;;;;;8.65;2.00;;;;;;;28.35;20.69;100062.62;7737940;32;37805;-77
2022/05/10 13:52:34;;;;;;;4.05;1.70;;;;;;;29.30;20.83;100068.59;7737442;32;39789;-77
2022/05/10 13:56:50;;;;;;;7.10;2.50;;;;;;;29.50;19.40;100067.09;7737995;32;40603;-80
2022/05/10 14:01:08;;;;;;;7.32;2.17;;;;;;;28.07;21.63;100061.16;7738100;32;38390;-77
2022/05/10 14:05:29;;;;;;;4.03;2.15;;;;;;;27.87;21.77;100058.50;7738706;32;38141;-77
2022/05/10 14:09:46;;;;;;;2.78;1.80;;;;;;;27.23;23.85;100052.06;7737574;32;39389;-78
2022/05/10 14:14:03;;;;;;;11.88;2.30;;;;;;;27.82;22.88;100044.84;7737461;32;40830;-78
2022/05/10 14:18:39;;;;;;;5.35;2.22;;;;;;;27.95;20.73;100044.63;7737376;32;38715;-79
2022/05/10 14:23:00;;;;;;;5.28;2.08;;;;;;;27.52;21.38;100030.87;7737242;32;37778;-78
2022/05/10 14:27:20;;;;;;;3.92;1.65;;;;;;;28.25;20.09;100033.28;7737871;32;39451;-79
2022/05/10 14:31:38;;;;;;;4.18;1.80;;;;;;;28.52;19.84;100025.50;7737877;32;40031;-79
2022/05/10 14:36:02;;;;;;;10.82;2.47;;;;;;;27.79;20.78;100028.00;7737126;32;37914;-79
2022/05/10 14:40:36;;;;;;;5.70;1.98;;;;;;;28.01;19.55;100024.28;7735995;32;38582;-80
2022/05/10 14:44:53;;;;;;;7.70;2.05;;;;;;;28.43;20.40;100022.25;7736761;32;38516;-78
2022/05/10 14:49:09;;;;;;;5.60;1.50;;;;;;;27.98;19.75;100030.63;7737159;32;40725;-80
2022/05/10 14:53:28;;;;;;;14.13;2.58;;;;;;;28.56;19.02;100011.56;7737422;32;37992;-79
2022/05/10 14:57:49;;;;;;;5.28;1.85;;;;;;;29.34;19.91;100013.28;7737481;32;37065;-79
2022/05/10 15:02:26;;;;;;;4.22;1.92;;;;;;;28.88;18.22;100011.78;7737513;32;39454;-80
2022/05/10 15:06:44;;;;;;;4.30;1.90;;;;;;;28.81;17.41;100015.34;7737340;32;39974;-79
2022/05/10 15:11:07;;;;;;;3.03;1.60;;;;;;;28.61;18.62;100014.81;7736757;32;37995;-79
2022/05/10 15:15:23;;;;;;;3.30;1.70;;;;;;;29.28;16.58;100012.81;7737129;32;37281;-79
2022/05/10 15:19:39;;;;;;;3.53;2.00;;;;;;;28.76;16.79;100010.09;7737088;32;39447;-80
2022/05/10 15:23:56;;;;;;;4.18;2.00;;;;;;;28.80;17.24;100001.69;7736779;32;39930;-79
2022/05/10 15:28:12;;;;;;;2.85;1.95;;;;;;;27.39;18.41;99993.13;7736669;32;38538;-79
2022/05/10 15:32:28;;;;;;;4.90;1.70;;;;;;;27.59;18.34;99994.56;7736457;32;37571;-81
2022/05/10 15:36:44;;;;;;;8.20;2.08;;;;;;;27.95;19.94;99997.78;7735917;32;39052;-81
2022/05/10 15:41:00;;;;;;;2.37;1.73;;;;;;;26.70;19.24;100005.34;7737123;32;40076;-79
2022/05/10 15:45:16;;;;;;;4.85;2.03;;;;;;;27.07;19.17;99993.50;7736809;32;37980;-80
2022/05/10 15:49:33;;;;;;;4.85;1.80;;;;;;;27.30;18.68;99997.03;7739018;32;37097;-79
2022/05/10 15:53:49;;;;;;;4.68;2.05;;;;;;;27.73;18.53;99986.34;7739910;32;40108;-79
2022/05/10 15:58:07;;;;;;;3.35;1.83;;;;;;;27.59;18.64;99990.97;7739984;32;39910;-79
2022/05/10 16:02:23;;;;;;;4.57;1.92;;;;;;;27.68;20.13;99997.06;7739805;32;38674;-79
2022/05/10 16:06:40;;;;;;;4.65;1.95;;;;;;;27.15;19.54;99984.81;7739794;32;36917;-78
2022/05/10 16:10:56;;;;;;;3.28;1.80;;;;;;;26.54;20.25;99988.69;7737997;32;39778;-79
2022/05/10 16:15:14;;;;;;;2.12;1.58;;;;;;;26.88;20.99;100000.81;7738996;32;39874;-79
2022/05/10 16:19:30;;;;;;;3.78;1.85;;;;;;;26.52;20.49;99997.47;7739693;32;38486;-81
2022/05/10 16:23:46;;;;;;;3.92;1.73;;;;;;;26.54;19.37;99992.28;7739789;32;36749;-80
2022/05/10 16:32:42;;;;;;;3.58;1.87;;;;;;;26.20;21.36;99996.94;7739665;32;39601;-79
2022/05/10 16:36:58;;;;;;;5.12;1.87;;;;;;;25.69;22.12;100000.78;7739420;32;37714;-77
2022/05/10 16:41:14;;;;;;;10.43;2.20;;;;;;;25.85;21.53;99995.91;7739492;32;37806;-79
2022/05/10 16:45:31;;;;;;;3.08;1.80;;;;;;;25.63;21.71;99996.66;7739389;32;39996;-79
2022/05/10 16:49:48;;;;;;;5.55;1.90;;;;;;;25.79;21.27;99989.00;7739162;32;40817;-78
2022/05/10 16:54:17;;;;;;;3.47;1.40;;;;;;;25.76;22.10;99992.53;7739177;32;39202;-79
2022/05/10 16:58:33;;;;;;;6.55;1.95;;;;;;;26.07;22.05;99984.34;7738970;32;37196;-81
2022/05/10 17:02:52;;;;;;;7.95;2.15;;;;;;;26.07;22.12;99982.34;7739191;32;38946;-78
2022/05/10 17:07:11;;;;;;;8.07;1.70;;;;;;;26.01;22.27;99981.84;7735559;32;38859;-80
2022/05/10 17:11:27;;;;;;;4.35;2.10;;;;;;;25.33;22.61;99977.72;7714925;32;38614;-80
2022/05/10 17:15:43;;;;;;;5.65;2.05;;;;;;;25.35;23.42;99978.16;7712177;32;36974;-80
2022/05/10 17:19:59;;;;;;;6.57;2.05;;;;;;;25.34;23.80;99986.94;7712066;32;39289;-80
2022/05/10 17:24:15;;;;;;;8.65;2.08;;;;;;;25.25;24.04;99981.50;7712018;32;40823;-81
2022/05/10 17:28:41;;;;;;;7.20;1.80;;;;;;;25.41;24.06;99985.06;7711845;32;38103;-80
2022/05/10 17:32:58;;;;;;;3.65;2.20;;;;;;;25.10;24.60;99980.41;7710808;32;37873;-79
2022/05/10 17:37:14;;;;;;;4.60;1.92;;;;;;;24.84;25.63;99978.25;7711854;32;39375;-79
2022/05/10 17:41:32;;;;;;;5.45;1.98;;;;;;;24.97;25.43;99976.94;7711892;32;39612;-79
2022/05/10 17:45:52;;;;;;;17.50;8.75;;;;;;;24.85;26.17;99977.06;7711912;32;39695;-79
2022/05/10 17:50:09;;;;;;;7.68;4.62;;;;;;;24.42;26.31;99984.41;7710752;32;37823;-78
2022/05/10 17:54:25;;;;;;;10.07;5.57;;;;;;;24.17;26.66;99990.16;7711971;32;41055;-79
2022/05/10 17:58:42;;;;;;;11.65;2.65;;;;;;;24.10;27.21;99995.56;7711702;32;39886;-79
2022/05/10 18:02:58;;;;;;;11.55;5.50;;;;;;;23.95;27.33;99986.81;7711607;32;37622;-79
2022/05/10 18:07:14;;;;;;;5.85;2.37;;;;;;;23.77;28.20;99993.87;7711901;32;37147;-79
2022/05/10 18:11:31;;;;;;;6.47;2.33;;;;;;;23.38;29.08;99994.37;7710846;32;39360;-78
2022/05/10 18:15:48;;;;;;;8.57;2.45;;;;;;;23.35;29.66;99991.47;7710402;32;41069;-78
2022/05/10 18:20:06;;;;;;;6.70;2.30;;;;;;;23.22;29.99;99999.88;7711552;32;38014;-78
2022/05/10 18:24:22;;;;;;;4.05;2.30;;;;;;;22.78;31.67;100008.03;7711547;32;37329;-78
2022/05/10 18:28:39;;;;;;;4.45;1.95;;;;;;;22.41;31.90;100007.25;7711464;32;40134;-78
2022/05/10 18:32:58;;;;;;;9.70;2.53;;;;;;;22.42;31.31;100015.25;7710193;32;40842;-78
2022/05/10 18:37:15;;;;;;;6.72;2.50;;;;;;;22.01;32.89;100019.78;7711315;32;36949;-78
2022/05/10 18:41:31;;;;;;;8.95;2.62;;;;;;;21.85;33.43;100021.56;7709976;32;36996;-77
2022/05/10 18:45:47;;;;;;;8.70;3.92;;;;;;;21.30;35.08;100026.25;7711289;32;39307;-76
2022/05/10 18:50:04;;;;;;;4.37;2.62;;;;;;;21.13;35.34;100024.47;7711206;32;39971;-77
2022/05/10 18:54:20;;;;;;;7.22;2.65;;;;;;;21.31;34.84;100033.44;7711125;32;38476;-77
2022/05/10 18:58:36;;;;;;;5.85;2.40;;;;;;;21.20;35.30;100046.91;7711166;32;36754;-77
2022/05/10 19:02:54;;;;;;;5.68;2.53;;;;;;;21.14;36.21;100054.59;7719950;32;39321;-77
2022/05/10 19:07:10;;;;;;;6.97;2.60;;;;;;;21.14;35.74;100051.00;7732881;32;40705;-75
2022/05/10 19:11:26;;;;;;;5.90;2.75;;;;;;;20.75;37.33;100048.31;7733120;32;37641;-78
2022/05/10 19:15:42;;;;;;;5.47;2.87;;;;;;;20.27;39.01;100064.13;7719117;32;36736;-77
2022/05/10 19:19:58;;;;;;;7.37;2.90;;;;;;;20.23;39.48;100068.72;7717481;32;39529;-77
2022/05/10 19:24:15;;;;;;;5.18;2.72;;;;;;;20.26;39.47;100068.06;7733477;32;40876;-78
2022/05/10 19:28:31;;;;;;;6.03;2.45;;;;;;;20.05;39.99;100067.13;7737175;32;38821;-77
2022/05/10 19:32:47;;;;;;;7.68;3.17;;;;;;;19.76;41.06;100065.84;7731764;32;37235;-75
2022/05/10 19:37:03;;;;;;;5.97;2.75;;;;;;;19.85;40.96;100066.66;7720217;32;39239;-77
2022/05/10 19:41:20;;;;;;;8.38;2.60;;;;;;;19.62;40.63;100065.97;7724557;32;40054;-77
2022/05/10 19:45:38;;;;;;;3.92;2.40;;;;;;;19.82;40.00;100066.50;7724713;32;37226;-76
2022/05/10 19:49:55;;;;;;;3.78;2.15;;;;;;;19.70;39.22;100067.94;7715596;32;36036;-77
2022/05/10 19:54:13;;;;;;;5.65;2.55;;;;;;;19.27;39.14;100063.22;7736489;32;39253;-77
2022/05/10 19:58:29;;;;;;;4.28;2.45;;;;;;;19.06;38.91;100087.91;7736657;32;41074;-77
2022/05/10 20:07:21;;;;;;;7.90;2.62;;;;;;;19.05;40.43;100090.97;7723745;32;37078;-78
2022/05/10 20:11:38;;;;;;;6.32;2.55;;;;;;;18.79;41.37;100085.34;7725103;32;39370;-78
2022/05/10 20:15:54;;;;;;;8.10;2.72;;;;;;;18.50;41.52;100081.16;7728740;32;39615;-78
2022/05/10 20:20:17;;;;;;;;;;;;;;;18.22;42.19;100075.84;7712048;32;38811;-78
2022/05/10 20:24:35;;;;;;;8.30;2.53;;;;;;;18.55;40.94;100075.50;7726726;32;36944;-78
2022/05/10 20:28:51;;;;;;;4.87;2.60;;;;;;;18.66;40.87;100076.03;7710549;32;39291;-80
2022/05/10 20:33:10;;;;;;;4.43;2.42;;;;;;;18.25;41.91;100075.22;7736022;32;39905;-79
2022/05/10 20:37:27;;;;;;;6.03;2.67;;;;;;;18.44;41.35;100079.66;7730063;32;36716;-78
2022/05/10 20:41:42;;;;;;;5.65;2.95;;;;;;;18.32;42.14;100080.28;7712526;32;37140;-79
2022/05/10 20:46:00;;;;;;;7.62;3.20;;;;;;;18.33;42.34;100077.22;7726361;32;39975;-79
2022/05/10 20:50:16;;;;;;;7.07;2.62;;;;;;;18.38;42.31;100085.34;7739131;32;40853;-79